PWSweather.com
Personal Weather Stations
Station Observations

ChardChardGB

Lat: 50.877408, Lon: -2.94964741

Elevation: 341

Station Type: WS3083

http://www.merriott-astro.co.uk/weather/index.htm

High Low Average
Temperature 54.0°F12.2°C 41.5°F5.3°C 46.8°F8.2°C
Dew Point 40.8°F4.9°C 36.8°F2.7°C 38.8°F3.8°C
Winds 14.6 mph 23.5 kmh 4.5 mph 7.2 kmh 8.0 mph SSE12.9 kmh SSE
Wind Gusts 22.8 mph36.7 kmh 4.5 mph7.2 kmh 11.0 mph17.7 kmh
Humidity 83% 58% 74%
Pressure 29.39 in995.3 mb 28.71 in972.2 mb -
Precipitation 0.52 in13.2 mm - -
Hour Temp Dew Point Humidity Winds Wind Gusts Pressure Precip Precip Rate Daily Precip Total
12:00 AM 41.5°F5.3°C 36.8°F2.7°C 83% 4.5 mph SW7.2 kmh SW 4.5 mph7.2 kmh 29.39 in995.3 mb 0.00 in0.0 mm 0.00 in0.0 mm 0.00 in0.0 mm
12:10 AM 41.5°F5.3°C 36.8°F2.7°C 83% 4.5 mph SW7.2 kmh SW 4.5 mph7.2 kmh 29.39 in995.3 mb 0.00 in0.0 mm 0.00 in0.0 mm 0.00 in0.0 mm
12:20 AM 41.5°F5.3°C 36.8°F2.7°C 83% 4.5 mph SW7.2 kmh SW 4.5 mph7.2 kmh 29.38 in994.9 mb 0.00 in0.0 mm 0.00 in0.0 mm 0.00 in0.0 mm
12:30 AM 41.5°F5.3°C 36.8°F2.7°C 83% 4.5 mph SW7.2 kmh SW 4.5 mph7.2 kmh 29.38 in994.9 mb 0.00 in0.0 mm 0.00 in0.0 mm 0.00 in0.0 mm
12:40 AM 41.5°F5.3°C 36.8°F2.7°C 83% 4.5 mph SW7.2 kmh SW 4.5 mph7.2 kmh 29.37 in994.6 mb 0.00 in0.0 mm 0.00 in0.0 mm 0.00 in0.0 mm
12:50 AM 41.5°F5.3°C 36.8°F2.7°C 83% 4.5 mph SW7.2 kmh SW 4.5 mph7.2 kmh 29.37 in994.6 mb 0.00 in0.0 mm 0.00 in0.0 mm 0.00 in0.0 mm
01:00 AM 41.5°F5.3°C 36.8°F2.7°C 83% 4.5 mph SW7.2 kmh SW 4.5 mph7.2 kmh 29.36 in994.2 mb 0.00 in0.0 mm 0.00 in0.0 mm 0.00 in0.0 mm
01:10 AM 41.5°F5.3°C 36.8°F2.7°C 83% 4.5 mph SW7.2 kmh SW 4.5 mph7.2 kmh 29.36 in994.2 mb 0.00 in0.0 mm 0.00 in0.0 mm 0.00 in0.0 mm
01:20 AM 41.5°F5.3°C 36.8°F2.7°C 83% 4.5 mph SW7.2 kmh SW 4.5 mph7.2 kmh 29.34 in993.6 mb 0.00 in0.0 mm 0.00 in0.0 mm 0.00 in0.0 mm
01:30 AM 41.5°F5.3°C 36.8°F2.7°C 83% 4.5 mph SW7.2 kmh SW 4.5 mph7.2 kmh 29.34 in993.6 mb 0.00 in0.0 mm 0.00 in0.0 mm 0.00 in0.0 mm
01:40 AM 41.5°F5.3°C 36.8°F2.7°C 83% 4.5 mph SW7.2 kmh SW 4.5 mph7.2 kmh 29.34 in993.6 mb 0.00 in0.0 mm 0.00 in0.0 mm 0.00 in0.0 mm
01:50 AM 41.5°F5.3°C 36.8°F2.7°C 83% 4.5 mph SW7.2 kmh SW 4.5 mph7.2 kmh 29.34 in993.6 mb 0.00 in0.0 mm 0.00 in0.0 mm 0.00 in0.0 mm
02:00 AM 41.5°F5.3°C 36.8°F2.7°C 83% 4.5 mph SW7.2 kmh SW 4.5 mph7.2 kmh 29.33 in993.2 mb 0.00 in0.0 mm 0.00 in0.0 mm 0.00 in0.0 mm
02:10 AM 41.5°F5.3°C 36.8°F2.7°C 83% 4.5 mph SW7.2 kmh SW 4.5 mph7.2 kmh 29.32 in992.9 mb 0.00 in0.0 mm 0.00 in0.0 mm 0.00 in0.0 mm
02:20 AM 41.5°F5.3°C 36.8°F2.7°C 83% 4.5 mph SW7.2 kmh SW 4.5 mph7.2 kmh 29.31 in992.6 mb 0.00 in0.0 mm 0.00 in0.0 mm 0.00 in0.0 mm
02:30 AM 41.5°F5.3°C 36.8°F2.7°C 83% 4.5 mph SW7.2 kmh SW 4.5 mph7.2 kmh 29.30 in992.2 mb 0.00 in0.0 mm 0.00 in0.0 mm 0.00 in0.0 mm
02:40 AM 41.5°F5.3°C 36.8°F2.7°C 83% 4.5 mph SW7.2 kmh SW 4.5 mph7.2 kmh 29.30 in992.2 mb 0.00 in0.0 mm 0.00 in0.0 mm 0.00 in0.0 mm
02:50 AM 41.5°F5.3°C 36.8°F2.7°C 83% 4.5 mph SW7.2 kmh SW 4.5 mph7.2 kmh 29.31 in992.6 mb 0.00 in0.0 mm 0.00 in0.0 mm 0.00 in0.0 mm
03:00 AM 41.5°F5.3°C 36.8°F2.7°C 83% 4.5 mph SW7.2 kmh SW 4.5 mph7.2 kmh 29.30 in992.2 mb 0.00 in0.0 mm 0.00 in0.0 mm 0.00 in0.0 mm
03:10 AM 41.5°F5.3°C 36.8°F2.7°C 83% 4.5 mph SW7.2 kmh SW 4.5 mph7.2 kmh 29.29 in991.9 mb 0.00 in0.0 mm 0.00 in0.0 mm 0.00 in0.0 mm
03:20 AM 41.5°F5.3°C 36.8°F2.7°C 83% 4.5 mph SW7.2 kmh SW 4.5 mph7.2 kmh 29.30 in992.2 mb 0.00 in0.0 mm 0.00 in0.0 mm 0.00 in0.0 mm
03:30 AM 41.5°F5.3°C 36.8°F2.7°C 83% 4.5 mph SW7.2 kmh SW 4.5 mph7.2 kmh 29.29 in991.9 mb 0.00 in0.0 mm 0.00 in0.0 mm 0.00 in0.0 mm
03:40 AM 41.5°F5.3°C 36.8°F2.7°C 83% 4.5 mph SW7.2 kmh SW 4.5 mph7.2 kmh 29.29 in991.9 mb 0.00 in0.0 mm 0.00 in0.0 mm 0.00 in0.0 mm
03:50 AM 41.5°F5.3°C 36.8°F2.7°C 83% 4.5 mph SW7.2 kmh SW 4.5 mph7.2 kmh 29.29 in991.9 mb 0.00 in0.0 mm 0.00 in0.0 mm 0.00 in0.0 mm
04:00 AM 41.5°F5.3°C 36.8°F2.7°C 83% 4.5 mph SW7.2 kmh SW 4.5 mph7.2 kmh 29.28 in991.5 mb 0.00 in0.0 mm 0.00 in0.0 mm 0.00 in0.0 mm
04:10 AM 41.5°F5.3°C 36.8°F2.7°C 83% 4.5 mph SW7.2 kmh SW 4.5 mph7.2 kmh 29.27 in991.2 mb 0.00 in0.0 mm 0.00 in0.0 mm 0.00 in0.0 mm
04:20 AM 41.5°F5.3°C 36.8°F2.7°C 83% 4.5 mph SW7.2 kmh SW 4.5 mph7.2 kmh 29.25 in990.5 mb 0.00 in0.0 mm 0.00 in0.0 mm 0.00 in0.0 mm
04:30 AM 41.5°F5.3°C 36.8°F2.7°C 83% 4.5 mph SW7.2 kmh SW 4.5 mph7.2 kmh 29.25 in990.5 mb 0.00 in0.0 mm 0.00 in0.0 mm 0.00 in0.0 mm
04:40 AM 41.5°F5.3°C 36.8°F2.7°C 83% 4.5 mph SW7.2 kmh SW 4.5 mph7.2 kmh 29.25 in990.5 mb 0.00 in0.0 mm 0.00 in0.0 mm 0.00 in0.0 mm
04:50 AM 41.5°F5.3°C 36.8°F2.7°C 83% 4.5 mph SW7.2 kmh SW 4.5 mph7.2 kmh 29.24 in990.2 mb 0.00 in0.0 mm 0.00 in0.0 mm 0.00 in0.0 mm
05:00 AM 41.5°F5.3°C 36.8°F2.7°C 83% 4.5 mph SW7.2 kmh SW 4.5 mph7.2 kmh 29.24 in990.2 mb 0.00 in0.0 mm 0.00 in0.0 mm 0.00 in0.0 mm
05:10 AM 41.5°F5.3°C 36.8°F2.7°C 83% 4.5 mph SW7.2 kmh SW 4.5 mph7.2 kmh 29.23 in989.8 mb 0.00 in0.0 mm 0.00 in0.0 mm 0.00 in0.0 mm
05:20 AM 41.5°F5.3°C 36.8°F2.7°C 83% 4.5 mph SW7.2 kmh SW 4.5 mph7.2 kmh 29.24 in990.2 mb 0.00 in0.0 mm 0.00 in0.0 mm 0.00 in0.0 mm
05:30 AM 41.5°F5.3°C 36.8°F2.7°C 83% 4.5 mph SW7.2 kmh SW 4.5 mph7.2 kmh 29.23 in989.8 mb 0.00 in0.0 mm 0.00 in0.0 mm 0.00 in0.0 mm
05:40 AM 41.5°F5.3°C 36.8°F2.7°C 83% 4.5 mph SW7.2 kmh SW 4.5 mph7.2 kmh 29.22 in989.5 mb 0.00 in0.0 mm 0.00 in0.0 mm 0.00 in0.0 mm
05:50 AM 41.5°F5.3°C 36.8°F2.7°C 83% 4.5 mph SW7.2 kmh SW 4.5 mph7.2 kmh 29.22 in989.5 mb 0.00 in0.0 mm 0.00 in0.0 mm 0.00 in0.0 mm
06:00 AM 41.5°F5.3°C 36.8°F2.7°C 83% 4.5 mph SW7.2 kmh SW 4.5 mph7.2 kmh 29.22 in989.5 mb 0.00 in0.0 mm 0.00 in0.0 mm 0.00 in0.0 mm
06:10 AM 41.5°F5.3°C 36.8°F2.7°C 83% 4.5 mph SW7.2 kmh SW 4.5 mph7.2 kmh 29.21 in989.2 mb 0.00 in0.0 mm 0.00 in0.0 mm 0.00 in0.0 mm
06:20 AM 41.5°F5.3°C 36.8°F2.7°C 83% 4.5 mph SW7.2 kmh SW 4.5 mph7.2 kmh 29.21 in989.2 mb 0.00 in0.0 mm 0.00 in0.0 mm 0.00 in0.0 mm
06:30 AM 41.5°F5.3°C 36.8°F2.7°C 83% 4.5 mph SW7.2 kmh SW 4.5 mph7.2 kmh 29.20 in988.8 mb 0.00 in0.0 mm 0.00 in0.0 mm 0.00 in0.0 mm
06:40 AM 41.5°F5.3°C 36.8°F2.7°C 83% 4.5 mph SW7.2 kmh SW 4.5 mph7.2 kmh 29.20 in988.8 mb 0.00 in0.0 mm 0.00 in0.0 mm 0.00 in0.0 mm
06:50 AM 41.5°F5.3°C 36.8°F2.7°C 83% 4.5 mph SW7.2 kmh SW 4.5 mph7.2 kmh 29.20 in988.8 mb 0.00 in0.0 mm 0.00 in0.0 mm 0.00 in0.0 mm
07:00 AM 46.4°F8.0°C 38.6°F3.7°C 74% 8.9 mph WSW14.3 kmh WSW 13.0 mph20.9 kmh 29.20 in988.8 mb 0.00 in0.0 mm 0.00 in0.0 mm 0.00 in0.0 mm
07:10 AM 46.4°F8.0°C 38.6°F3.7°C 74% 8.0 mph W12.9 kmh W 15.2 mph24.5 kmh 29.20 in988.8 mb 0.00 in0.0 mm 0.00 in0.0 mm 0.00 in0.0 mm
07:20 AM 46.6°F8.1°C 38.4°F3.6°C 73% 10.6 mph SSE17.1 kmh SSE 15.2 mph24.5 kmh 29.19 in988.5 mb 0.00 in0.0 mm 0.00 in0.0 mm 0.00 in0.0 mm
07:30 AM 46.6°F8.1°C 38.4°F3.6°C 73% 9.3 mph SE15.0 kmh SE 13.6 mph21.9 kmh 29.20 in988.8 mb 0.00 in0.0 mm 0.00 in0.0 mm 0.00 in0.0 mm
07:40 AM 46.6°F8.1°C 38.4°F3.6°C 73% 10.1 mph SSE16.3 kmh SSE 13.6 mph21.9 kmh 29.18 in988.1 mb 0.00 in0.0 mm 0.00 in0.0 mm 0.00 in0.0 mm
07:50 AM 46.8°F8.2°C 38.6°F3.7°C 73% 8.9 mph SE14.3 kmh SE 15.2 mph24.5 kmh 29.18 in988.1 mb 0.00 in0.0 mm 0.00 in0.0 mm 0.00 in0.0 mm
08:00 AM 46.9°F8.3°C 38.7°F3.7°C 73% 12.0 mph S19.3 kmh S 15.9 mph25.6 kmh 29.18 in988.1 mb 0.00 in0.0 mm 0.00 in0.0 mm 0.00 in0.0 mm
08:10 AM 47.1°F8.4°C 38.9°F3.8°C 73% 9.7 mph S15.6 kmh S 14.5 mph23.3 kmh 29.17 in987.8 mb 0.00 in0.0 mm 0.00 in0.0 mm 0.00 in0.0 mm
08:20 AM 47.3°F8.5°C 38.7°F3.7°C 72% 9.1 mph S14.6 kmh S 13.6 mph21.9 kmh 29.17 in987.8 mb 0.00 in0.0 mm 0.00 in0.0 mm 0.00 in0.0 mm
08:30 AM 47.3°F8.5°C 38.7°F3.7°C 72% 9.6 mph S15.4 kmh S 14.5 mph23.3 kmh 29.17 in987.8 mb 0.00 in0.0 mm 0.00 in0.0 mm 0.00 in0.0 mm
08:40 AM 47.7°F8.7°C 38.7°F3.7°C 71% 10.1 mph SE16.3 kmh SE 15.9 mph25.6 kmh 29.17 in987.8 mb 0.00 in0.0 mm 0.00 in0.0 mm 0.00 in0.0 mm
08:50 AM 47.8°F8.8°C 38.5°F3.6°C 70% 9.3 mph SE15.0 kmh SE 15.2 mph24.5 kmh 29.16 in987.5 mb 0.00 in0.0 mm 0.00 in0.0 mm 0.00 in0.0 mm
09:00 AM 48.0°F8.9°C 38.7°F3.7°C 70% 10.0 mph S16.1 kmh S 14.5 mph23.3 kmh 29.16 in987.5 mb 0.00 in0.0 mm 0.00 in0.0 mm 0.00 in0.0 mm
09:10 AM 48.2°F9.0°C 38.9°F3.8°C 70% 8.7 mph SE14.0 kmh SE 13.0 mph20.9 kmh 29.16 in987.5 mb 0.00 in0.0 mm 0.00 in0.0 mm 0.00 in0.0 mm
09:20 AM 48.2°F9.0°C 38.9°F3.8°C 70% 9.8 mph SE15.8 kmh SE 13.0 mph20.9 kmh 29.14 in986.8 mb 0.00 in0.0 mm 0.00 in0.0 mm 0.00 in0.0 mm
09:30 AM 48.6°F9.2°C 38.9°F3.8°C 69% 9.1 mph S14.6 kmh S 13.0 mph20.9 kmh 29.14 in986.8 mb 0.00 in0.0 mm 0.00 in0.0 mm 0.00 in0.0 mm
09:40 AM 48.7°F9.3°C 38.7°F3.7°C 68% 10.6 mph S17.1 kmh S 15.2 mph24.5 kmh 29.14 in986.8 mb 0.00 in0.0 mm 0.00 in0.0 mm 0.00 in0.0 mm
09:50 AM 48.7°F9.3°C 38.3°F3.5°C 67% 13.0 mph S20.9 kmh S 18.3 mph29.5 kmh 29.13 in986.5 mb 0.00 in0.0 mm 0.00 in0.0 mm 0.00 in0.0 mm
10:00 AM 49.1°F9.5°C 38.6°F3.7°C 67% 12.3 mph SE19.8 kmh SE 15.9 mph25.6 kmh 29.13 in986.5 mb 0.00 in0.0 mm 0.00 in0.0 mm 0.00 in0.0 mm
10:10 AM 49.6°F9.8°C 38.8°F3.8°C 66% 10.7 mph S17.2 kmh S 15.9 mph25.6 kmh 29.12 in986.1 mb 0.00 in0.0 mm 0.00 in0.0 mm 0.00 in0.0 mm
10:20 AM 50.2°F10.1°C 38.9°F3.8°C 65% 12.1 mph SW19.5 kmh SW 20.6 mph33.2 kmh 29.13 in986.5 mb 0.00 in0.0 mm 0.00 in0.0 mm 0.00 in0.0 mm
10:30 AM 50.5°F10.3°C 38.4°F3.6°C 63% 13.3 mph SSE21.4 kmh SSE 22.8 mph36.7 kmh 29.11 in985.8 mb 0.00 in0.0 mm 0.00 in0.0 mm 0.00 in0.0 mm
10:40 AM 52.7°F11.5°C 40.1°F4.5°C 62% 10.4 mph SSE16.7 kmh SSE 16.8 mph27.0 kmh 29.10 in985.4 mb 0.00 in0.0 mm 0.00 in0.0 mm 0.00 in0.0 mm
10:50 AM 52.3°F11.3°C 39.3°F4.1°C 61% 13.2 mph SSE21.2 kmh SSE 21.3 mph34.3 kmh 29.10 in985.4 mb 0.00 in0.0 mm 0.00 in0.0 mm 0.00 in0.0 mm
11:00 AM 53.8°F12.1°C 40.2°F4.6°C 60% 11.0 mph ESE17.7 kmh ESE 18.3 mph29.5 kmh 29.09 in985.1 mb 0.00 in0.0 mm 0.00 in0.0 mm 0.00 in0.0 mm
11:10 AM 53.4°F11.9°C 39.9°F4.4°C 60% 11.7 mph S18.8 kmh S 15.2 mph24.5 kmh 29.08 in984.8 mb 0.00 in0.0 mm 0.00 in0.0 mm 0.00 in0.0 mm
11:20 AM 54.0°F12.2°C 39.5°F4.2°C 58% 12.1 mph SE19.5 kmh SE 20.6 mph33.2 kmh 29.09 in985.1 mb 0.00 in0.0 mm 0.00 in0.0 mm 0.00 in0.0 mm
11:30 AM 52.5°F11.4°C 38.2°F3.4°C 58% 14.6 mph SSE23.5 kmh SSE 19.7 mph31.7 kmh 29.08 in984.8 mb 0.00 in0.0 mm 0.00 in0.0 mm 0.00 in0.0 mm
11:40 AM 52.2°F11.2°C 38.3°F3.5°C 59% 11.3 mph ESE18.2 kmh ESE 19.0 mph30.6 kmh 29.07 in984.4 mb 0.00 in0.0 mm 0.00 in0.0 mm 0.00 in0.0 mm
11:50 AM 51.6°F10.9°C 38.2°F3.4°C 60% 13.9 mph SW22.4 kmh SW 20.6 mph33.2 kmh 29.07 in984.4 mb 0.00 in0.0 mm 0.00 in0.0 mm 0.00 in0.0 mm
12:00 PM 51.4°F10.8°C 38.0°F3.3°C 60% 9.6 mph ESE15.4 kmh ESE 13.0 mph20.9 kmh 29.07 in984.4 mb 0.00 in0.0 mm 0.00 in0.0 mm 0.00 in0.0 mm
12:10 PM 50.5°F10.3°C 38.0°F3.3°C 62% 11.8 mph E19.0 kmh E 18.3 mph29.5 kmh 29.07 in984.4 mb 0.00 in0.0 mm 0.00 in0.0 mm 0.00 in0.0 mm
12:20 PM 50.2°F10.1°C 38.1°F3.4°C 63% 12.8 mph SSE20.6 kmh SSE 20.6 mph33.2 kmh 29.05 in983.7 mb 0.00 in0.0 mm 0.00 in0.0 mm 0.00 in0.0 mm
12:30 PM 50.4°F10.2°C 38.3°F3.5°C 63% 10.3 mph S16.6 kmh S 19.0 mph30.6 kmh 29.05 in983.7 mb 0.00 in0.0 mm 0.00 in0.0 mm 0.00 in0.0 mm
12:40 PM 50.4°F10.2°C 38.3°F3.5°C 63% 12.3 mph E19.8 kmh E 14.5 mph23.3 kmh 29.07 in984.4 mb 0.00 in0.0 mm 0.00 in0.0 mm 0.00 in0.0 mm
12:50 PM 50.2°F10.1°C 38.5°F3.6°C 64% 9.7 mph E15.6 kmh E 16.8 mph27.0 kmh 29.06 in984.1 mb 0.00 in0.0 mm 0.00 in0.0 mm 0.00 in0.0 mm
01:00 PM 50.0°F10.0°C 38.3°F3.5°C 64% 9.8 mph SE15.8 kmh SE 16.8 mph27.0 kmh 29.06 in984.1 mb 0.00 in0.0 mm 0.00 in0.0 mm 0.00 in0.0 mm
01:10 PM 49.6°F9.8°C 38.4°F3.6°C 65% 8.6 mph SSE13.8 kmh SSE 12.1 mph19.5 kmh 29.05 in983.7 mb 0.00 in0.0 mm 0.00 in0.0 mm 0.00 in0.0 mm
01:20 PM 49.6°F9.8°C 38.8°F3.8°C 66% 7.8 mph E12.6 kmh E 11.4 mph18.3 kmh 29.03 in983.1 mb 0.00 in0.0 mm 0.00 in0.0 mm 0.00 in0.0 mm
01:30 PM 49.6°F9.8°C 38.8°F3.8°C 66% 7.8 mph S12.6 kmh S 13.0 mph20.9 kmh 29.02 in982.7 mb 0.00 in0.0 mm 0.00 in0.0 mm 0.00 in0.0 mm
01:40 PM 49.6°F9.8°C 38.8°F3.8°C 66% 9.7 mph SSE15.6 kmh SSE 14.5 mph23.3 kmh 29.02 in982.7 mb 0.00 in0.0 mm 0.00 in0.0 mm 0.00 in0.0 mm
01:50 PM 49.8°F9.9°C 39.3°F4.1°C 67% 8.1 mph SE13.0 kmh SE 12.1 mph19.5 kmh 29.01 in982.4 mb 0.00 in0.0 mm 0.00 in0.0 mm 0.00 in0.0 mm
02:00 PM 50.4°F10.2°C 39.4°F4.1°C 66% 6.9 mph S11.1 kmh S 9.8 mph15.8 kmh 29.00 in982.1 mb 0.00 in0.0 mm 0.00 in0.0 mm 0.00 in0.0 mm
02:10 PM 50.5°F10.3°C 39.2°F4.0°C 65% 9.0 mph ESE14.5 kmh ESE 12.1 mph19.5 kmh 29.01 in982.4 mb 0.00 in0.0 mm 0.00 in0.0 mm 0.00 in0.0 mm
02:20 PM 50.7°F10.4°C 39.0°F3.9°C 64% 8.1 mph E13.0 kmh E 11.4 mph18.3 kmh 29.01 in982.4 mb 0.00 in0.0 mm 0.00 in0.0 mm 0.00 in0.0 mm
02:30 PM 50.0°F10.0°C 39.5°F4.2°C 67% 9.2 mph E14.8 kmh E 15.9 mph25.6 kmh 29.01 in982.4 mb 0.01 in0.3 mm 0.06 in1.5 mm 0.01 in0.3 mm
02:40 PM 49.5°F9.7°C 39.7°F4.3°C 69% 6.2 mph NE10.0 kmh NE 9.2 mph14.8 kmh 28.99 in981.7 mb 0.01 in0.3 mm 0.00 in0.0 mm 0.01 in0.3 mm
02:50 PM 49.1°F9.5°C 39.7°F4.3°C 70% 7.4 mph E11.9 kmh E 10.7 mph17.2 kmh 28.99 in981.7 mb 0.02 in0.5 mm 0.06 in1.5 mm 0.02 in0.5 mm
03:00 PM 49.1°F9.5°C 40.1°F4.5°C 71% 7.2 mph ENE11.6 kmh ENE 11.4 mph18.3 kmh 28.98 in981.4 mb 0.02 in0.5 mm 0.00 in0.0 mm 0.02 in0.5 mm
03:10 PM 49.3°F9.6°C 40.3°F4.6°C 71% 7.5 mph SE12.1 kmh SE 13.0 mph20.9 kmh 28.96 in980.7 mb 0.04 in1.0 mm 0.12 in3.0 mm 0.04 in1.0 mm
03:20 PM 49.3°F9.6°C 40.3°F4.6°C 71% 6.3 mph E10.1 kmh E 10.7 mph17.2 kmh 28.96 in980.7 mb 0.04 in1.0 mm 0.00 in0.0 mm 0.04 in1.0 mm
03:30 PM 49.5°F9.7°C 40.5°F4.7°C 71% 7.2 mph SE11.6 kmh SE 10.7 mph17.2 kmh 28.96 in980.7 mb 0.02 in0.5 mm 0.00 in0.0 mm 0.04 in1.0 mm
03:40 PM 49.5°F9.7°C 40.5°F4.7°C 71% 7.4 mph E11.9 kmh E 10.7 mph17.2 kmh 28.96 in980.7 mb 0.04 in1.0 mm 0.12 in3.0 mm 0.05 in1.3 mm
03:50 PM 49.6°F9.8°C 40.6°F4.8°C 71% 6.2 mph SE10.0 kmh SE 10.7 mph17.2 kmh 28.95 in980.4 mb 0.02 in0.5 mm 0.00 in0.0 mm 0.05 in1.3 mm
04:00 PM 49.5°F9.7°C 40.5°F4.7°C 71% 5.7 mph SSE9.2 kmh SSE 11.4 mph18.3 kmh 28.95 in980.4 mb 0.02 in0.5 mm 0.00 in0.0 mm 0.05 in1.3 mm
04:10 PM 49.5°F9.7°C 40.5°F4.7°C 71% 4.9 mph S7.9 kmh S 6.9 mph11.1 kmh 28.94 in980.0 mb 0.01 in0.3 mm 0.00 in0.0 mm 0.05 in1.3 mm
04:20 PM 49.5°F9.7°C 40.5°F4.7°C 71% 6.1 mph SE9.8 kmh SE 10.7 mph17.2 kmh 28.93 in979.7 mb 0.02 in0.5 mm 0.06 in1.5 mm 0.06 in1.5 mm
04:30 PM 49.5°F9.7°C 40.5°F4.7°C 71% 5.0 mph ESE8.0 kmh ESE 8.3 mph13.4 kmh 28.92 in979.3 mb 0.01 in0.3 mm 0.00 in0.0 mm 0.06 in1.5 mm
04:40 PM 49.5°F9.7°C 40.5°F4.7°C 71% 6.8 mph NE10.9 kmh NE 15.2 mph24.5 kmh 28.93 in979.7 mb 0.02 in0.5 mm 0.06 in1.5 mm 0.07 in1.8 mm
04:50 PM 49.3°F9.6°C 40.3°F4.6°C 71% 6.1 mph E9.8 kmh E 9.8 mph15.8 kmh 28.93 in979.7 mb 0.02 in0.5 mm 0.00 in0.0 mm 0.07 in1.8 mm
05:00 PM 49.1°F9.5°C 40.5°F4.7°C 72% 5.9 mph SE9.5 kmh SE 10.7 mph17.2 kmh 28.92 in979.3 mb 0.05 in1.3 mm 0.04 in1.0 mm 0.09 in2.3 mm
05:10 PM 48.9°F9.4°C 40.3°F4.6°C 72% 8.1 mph ESE13.0 kmh ESE 11.4 mph18.3 kmh 28.91 in979.0 mb 0.06 in1.5 mm 0.06 in1.5 mm 0.11 in2.8 mm
05:20 PM 48.7°F9.3°C 40.5°F4.7°C 73% 5.6 mph SSE9.0 kmh SSE 8.3 mph13.4 kmh 28.90 in978.7 mb 0.06 in1.5 mm 0.00 in0.0 mm 0.12 in3.0 mm
05:30 PM 48.9°F9.4°C 40.7°F4.8°C 73% 6.2 mph ENE10.0 kmh ENE 11.4 mph18.3 kmh 28.89 in978.3 mb 0.06 in1.5 mm 0.00 in0.0 mm 0.12 in3.0 mm
05:40 PM 49.1°F9.5°C 40.8°F4.9°C 73% 5.9 mph E9.5 kmh E 9.2 mph14.8 kmh 28.89 in978.3 mb 0.05 in1.3 mm 0.00 in0.0 mm 0.12 in3.0 mm
05:50 PM 49.3°F9.6°C 40.6°F4.8°C 72% 6.9 mph E11.1 kmh E 11.4 mph18.3 kmh 28.88 in978.0 mb 0.06 in1.5 mm 0.06 in1.5 mm 0.13 in3.3 mm
06:00 PM 49.3°F9.6°C 40.6°F4.8°C 72% 5.1 mph ESE8.2 kmh ESE 8.3 mph13.4 kmh 28.88 in978.0 mb 0.04 in1.0 mm 0.00 in0.0 mm 0.13 in3.3 mm
06:10 PM 49.5°F9.7°C 40.8°F4.9°C 72% 7.1 mph ESE11.4 kmh ESE 10.7 mph17.2 kmh 28.88 in978.0 mb 0.04 in1.0 mm 0.00 in0.0 mm 0.14 in3.6 mm
06:20 PM 49.5°F9.7°C 40.5°F4.7°C 71% 9.1 mph SE14.6 kmh SE 13.6 mph21.9 kmh 28.88 in978.0 mb 0.04 in1.0 mm 0.00 in0.0 mm 0.15 in3.8 mm
06:30 PM 49.3°F9.6°C 40.3°F4.6°C 71% 7.0 mph NE11.3 kmh NE 10.7 mph17.2 kmh 28.88 in978.0 mb 0.05 in1.3 mm 0.06 in1.5 mm 0.17 in4.3 mm
06:40 PM 49.3°F9.6°C 40.3°F4.6°C 71% 7.5 mph ENE12.1 kmh ENE 10.7 mph17.2 kmh 28.87 in977.7 mb 0.05 in1.3 mm 0.00 in0.0 mm 0.17 in4.3 mm
06:50 PM 48.9°F9.4°C 39.9°F4.4°C 71% 7.8 mph SE12.6 kmh SE 9.8 mph15.8 kmh 28.86 in977.3 mb 0.06 in1.5 mm 0.06 in1.5 mm 0.19 in4.8 mm
07:00 PM 48.7°F9.3°C 40.1°F4.5°C 72% 7.1 mph ESE11.4 kmh ESE 9.8 mph15.8 kmh 28.85 in977.0 mb 0.08 in2.0 mm 0.02 in0.5 mm 0.21 in5.3 mm
07:10 PM 48.6°F9.2°C 40.0°F4.4°C 72% 9.3 mph SE15.0 kmh SE 13.6 mph21.9 kmh 28.85 in977.0 mb 0.08 in2.0 mm 0.00 in0.0 mm 0.22 in5.6 mm
07:20 PM 48.6°F9.2°C 40.0°F4.4°C 72% 8.6 mph ESE13.8 kmh ESE 13.6 mph21.9 kmh 28.84 in976.6 mb 0.09 in2.3 mm 0.06 in1.5 mm 0.25 in6.4 mm
07:30 PM 48.4°F9.1°C 39.8°F4.3°C 72% 9.2 mph ESE14.8 kmh ESE 14.5 mph23.3 kmh 28.84 in976.6 mb 0.11 in2.8 mm 0.12 in3.0 mm 0.27 in6.9 mm
07:40 PM 48.2°F9.0°C 39.6°F4.2°C 72% 10.3 mph SE16.6 kmh SE 15.2 mph24.5 kmh 28.83 in976.3 mb 0.12 in3.0 mm 0.06 in1.5 mm 0.28 in7.1 mm
07:50 PM 48.2°F9.0°C 40.0°F4.4°C 73% 10.3 mph S16.6 kmh S 16.8 mph27.0 kmh 28.83 in976.3 mb 0.12 in3.0 mm 0.00 in0.0 mm 0.31 in7.9 mm
08:00 PM 48.2°F9.0°C 40.0°F4.4°C 73% 9.5 mph E15.3 kmh E 14.5 mph23.3 kmh 28.83 in976.3 mb 0.11 in2.8 mm 0.00 in0.0 mm 0.32 in8.1 mm
08:10 PM 48.2°F9.0°C 40.3°F4.6°C 74% 8.0 mph ENE12.9 kmh ENE 12.1 mph19.5 kmh 28.82 in976.0 mb 0.12 in3.0 mm 0.06 in1.5 mm 0.34 in8.6 mm
08:20 PM 48.2°F9.0°C 40.3°F4.6°C 74% 10.3 mph E16.6 kmh E 13.6 mph21.9 kmh 28.81 in975.6 mb 0.12 in3.0 mm 0.00 in0.0 mm 0.37 in9.4 mm
08:30 PM 48.0°F8.9°C 40.1°F4.5°C 74% 9.5 mph ESE15.3 kmh ESE 13.6 mph21.9 kmh 28.80 in975.3 mb 0.13 in3.3 mm 0.06 in1.5 mm 0.40 in10.2 mm
08:40 PM 47.8°F8.8°C 40.0°F4.4°C 74% 9.0 mph SE14.5 kmh SE 15.2 mph24.5 kmh 28.80 in975.3 mb 0.13 in3.3 mm 0.00 in0.0 mm 0.41 in10.4 mm
08:50 PM 47.8°F8.8°C 40.0°F4.4°C 74% 10.7 mph ESE17.2 kmh ESE 15.2 mph24.5 kmh 28.80 in975.3 mb 0.13 in3.3 mm 0.00 in0.0 mm 0.44 in11.2 mm
09:00 PM 47.7°F8.7°C 40.1°F4.5°C 75% 11.0 mph SE17.7 kmh SE 13.6 mph21.9 kmh 28.80 in975.3 mb 0.15 in3.8 mm 0.02 in0.5 mm 0.47 in11.9 mm
09:10 PM 47.7°F8.7°C 40.1°F4.5°C 75% 11.0 mph WNW17.7 kmh WNW 17.4 mph28.0 kmh 28.78 in974.6 mb 0.15 in3.8 mm 0.00 in0.0 mm 0.50 in12.7 mm
09:20 PM 47.7°F8.7°C 40.5°F4.7°C 76% 7.6 mph SE12.2 kmh SE 13.0 mph20.9 kmh 28.78 in974.6 mb 0.14 in3.6 mm 0.00 in0.0 mm 0.52 in13.2 mm
09:30 PM 47.7°F8.7°C 40.5°F4.7°C 76% 7.6 mph SE12.2 kmh SE 7.6 mph12.2 kmh 28.77 in974.3 mb 0.12 in3.0 mm 0.00 in0.0 mm 0.52 in13.2 mm
09:40 PM 47.7°F8.7°C 40.5°F4.7°C 76% 7.6 mph SE12.2 kmh SE 7.6 mph12.2 kmh 28.77 in974.3 mb 0.11 in2.8 mm 0.00 in0.0 mm 0.52 in13.2 mm
09:50 PM 47.7°F8.7°C 40.5°F4.7°C 76% 7.6 mph SE12.2 kmh SE 7.6 mph12.2 kmh 28.76 in973.9 mb 0.07 in1.8 mm 0.00 in0.0 mm 0.52 in13.2 mm
10:00 PM 47.7°F8.7°C 40.5°F4.7°C 76% 7.6 mph SE12.2 kmh SE 7.6 mph12.2 kmh 28.76 in973.9 mb 0.05 in1.3 mm 0.00 in0.0 mm 0.52 in13.2 mm
10:10 PM 47.7°F8.7°C 40.5°F4.7°C 76% 7.6 mph SE12.2 kmh SE 7.6 mph12.2 kmh 28.76 in973.9 mb 0.01 in0.3 mm 0.00 in0.0 mm 0.52 in13.2 mm
10:20 PM 47.7°F8.7°C 40.5°F4.7°C 76% 7.6 mph SE12.2 kmh SE 7.6 mph12.2 kmh 28.75 in973.6 mb 0.00 in0.0 mm 0.00 in0.0 mm 0.52 in13.2 mm
10:30 PM 47.7°F8.7°C 40.5°F4.7°C 76% 7.6 mph SE12.2 kmh SE 7.6 mph12.2 kmh 28.74 in973.2 mb 0.00 in0.0 mm 0.00 in0.0 mm 0.52 in13.2 mm
10:40 PM 47.7°F8.7°C 40.5°F4.7°C 76% 7.6 mph SE12.2 kmh SE 7.6 mph12.2 kmh 28.74 in973.2 mb 0.00 in0.0 mm 0.00 in0.0 mm 0.52 in13.2 mm
10:50 PM 47.7°F8.7°C 40.5°F4.7°C 76% 7.6 mph SE12.2 kmh SE 7.6 mph12.2 kmh 28.74 in973.2 mb 0.00 in0.0 mm 0.00 in0.0 mm 0.52 in13.2 mm
11:00 PM 47.7°F8.7°C 40.5°F4.7°C 76% 7.6 mph SE12.2 kmh SE 7.6 mph12.2 kmh 28.74 in973.2 mb 0.00 in0.0 mm 0.00 in0.0 mm 0.52 in13.2 mm
11:10 PM 47.7°F8.7°C 40.5°F4.7°C 76% 7.6 mph SE12.2 kmh SE 7.6 mph12.2 kmh 28.73 in972.9 mb 0.00 in0.0 mm 0.00 in0.0 mm 0.52 in13.2 mm
11:20 PM 46.2°F7.9°C 39.7°F4.3°C 78% 7.7 mph NE12.4 kmh NE 10.7 mph17.2 kmh 28.73 in972.9 mb 0.00 in0.0 mm 0.00 in0.0 mm 0.26 in6.6 mm
11:30 PM 46.0°F7.8°C 39.9°F4.4°C 79% 8.2 mph ESE13.2 kmh ESE 11.4 mph18.3 kmh 28.72 in972.6 mb 0.00 in0.0 mm 0.00 in0.0 mm 0.27 in6.9 mm
11:40 PM 46.0°F7.8°C 39.9°F4.4°C 79% 7.8 mph SW12.6 kmh SW 13.0 mph20.9 kmh 28.72 in972.6 mb 0.00 in0.0 mm 0.00 in0.0 mm 0.30 in7.6 mm
11:50 PM 46.2°F7.9°C 40.1°F4.5°C 79% 10.5 mph E16.9 kmh E 15.2 mph24.5 kmh 28.71 in972.2 mb 0.00 in0.0 mm 0.00 in0.0 mm 0.32 in8.1 mm